createdAt,value
2023-11-08T00:00:19.862Z,50.885765
2023-11-08T00:01:19.846Z,50.885700
2023-11-08T00:02:19.849Z,50.885651
2023-11-08T00:03:19.934Z,50.885582
2023-11-08T00:04:19.899Z,50.885605
2023-11-08T00:05:19.807Z,50.885597
2023-11-08T00:06:19.854Z,50.885628
2023-11-08T00:07:19.788Z,50.885571
2023-11-08T00:08:19.796Z,50.885593
2023-11-08T00:09:19.808Z,50.885590
2023-11-08T00:10:19.760Z,50.885643
2023-11-08T00:11:19.756Z,50.885628
2023-11-08T00:12:19.804Z,50.885513
2023-11-08T00:13:19.771Z,50.885567
2023-11-08T00:14:19.781Z,50.885593
2023-11-08T00:15:19.729Z,50.885639
2023-11-08T00:16:19.760Z,50.885780
2023-11-08T00:17:19.787Z,50.885624
2023-11-08T00:18:19.877Z,50.885590
2023-11-08T00:19:19.771Z,50.885612
2023-11-08T00:20:19.702Z,50.885567
2023-11-08T00:21:19.753Z,50.885700
2023-11-08T00:22:19.703Z,50.885593
2023-11-08T00:23:20.721Z,50.885647
2023-11-08T00:24:19.779Z,50.885612
2023-11-08T00:25:19.709Z,50.885632
2023-11-08T00:26:19.768Z,50.885689
2023-11-08T00:27:19.711Z,50.885666
2023-11-08T00:28:19.673Z,50.885677
2023-11-08T00:29:19.687Z,50.885593
2023-11-08T00:30:19.688Z,50.885490
2023-11-08T00:31:19.645Z,50.885471
2023-11-08T00:32:19.658Z,50.885513
2023-11-08T00:33:19.679Z,50.885567
2023-11-08T00:34:19.648Z,50.885681
2023-11-08T00:35:19.661Z,50.885849
2023-11-08T00:36:19.668Z,50.885830
2023-11-08T00:37:19.765Z,50.885830
2023-11-08T00:38:19.641Z,50.885830
2023-11-08T00:39:20.098Z,50.885632
2023-11-08T00:40:19.648Z,50.885662
2023-11-08T00:41:19.621Z,50.885662
2023-11-08T00:42:19.667Z,50.885597
2023-11-08T00:43:19.734Z,50.885620
2023-11-08T00:44:19.603Z,50.885620
2023-11-08T00:45:19.606Z,50.885620
2023-11-08T00:46:19.577Z,50.885616
2023-11-08T00:47:19.571Z,50.885677
2023-11-08T00:48:19.637Z,50.885643
2023-11-08T00:49:20.679Z,50.885593
2023-11-08T00:50:19.570Z,50.885628
2023-11-08T00:51:19.577Z,50.885597
2023-11-08T00:52:19.561Z,50.885677
2023-11-08T00:53:19.546Z,50.885677
2023-11-08T00:54:19.558Z,50.885635
2023-11-08T00:55:19.537Z,50.885574
2023-11-08T00:56:19.546Z,50.885624
2023-11-08T00:57:19.628Z,50.885651
2023-11-08T00:58:19.555Z,50.885796
2023-11-08T00:59:19.553Z,50.885780
2023-11-08T01:00:19.521Z,50.885696
2023-11-08T01:01:19.548Z,50.885624
2023-11-08T01:02:19.526Z,50.885609
2023-11-08T01:03:19.622Z,50.885639
2023-11-08T01:04:19.762Z,50.885658
2023-11-08T01:05:19.502Z,50.885769
2023-11-08T01:06:19.545Z,50.885624
2023-11-08T01:07:19.506Z,50.885674
2023-11-08T01:08:19.495Z,50.885654
2023-11-08T01:09:19.553Z,50.885559
2023-11-08T01:10:19.458Z,50.885525
2023-11-08T01:11:19.450Z,50.885616
2023-11-08T01:12:19.479Z,50.885563
2023-11-08T01:13:19.477Z,50.885544
2023-11-08T01:14:19.438Z,50.885582
2023-11-08T01:15:20.535Z,50.885429
2023-11-08T01:16:19.429Z,50.885727
2023-11-08T01:17:19.435Z,50.885475
2023-11-08T01:18:19.518Z,50.885357
2023-11-08T01:19:19.419Z,50.885567
2023-11-08T01:20:19.412Z,50.885567
2023-11-08T01:21:19.537Z,50.885384
2023-11-08T01:22:19.434Z,50.885574
2023-11-08T01:23:19.414Z,50.885876
2023-11-08T01:24:19.456Z,50.885948
2023-11-08T01:25:19.415Z,50.886204
2023-11-08T01:26:19.420Z,50.886139
2023-11-08T01:27:19.437Z,50.885780
2023-11-08T01:28:19.384Z,50.885639
2023-11-08T01:29:19.389Z,50.885506
2023-11-08T01:30:19.453Z,50.885616
2023-11-08T01:31:19.365Z,50.885708
2023-11-08T01:32:19.355Z,50.885712
2023-11-08T01:33:19.526Z,50.885418
2023-11-08T01:34:19.440Z,50.885330
2023-11-08T01:35:19.343Z,50.885330
2023-11-08T01:36:19.438Z,50.885330
2023-11-08T01:37:19.309Z,50.885368
2023-11-08T01:38:19.345Z,50.885521
2023-11-08T01:39:19.333Z,50.885445
2023-11-08T01:40:19.405Z,50.885590
2023-11-08T01:41:19.343Z,50.885700
2023-11-08T01:42:19.315Z,50.885792
2023-11-08T01:43:19.291Z,50.885696
2023-11-08T01:44:19.305Z,50.885731
2023-11-08T01:45:19.354Z,50.885590
2023-11-08T01:46:19.291Z,50.885628
2023-11-08T01:47:19.277Z,50.885586
2023-11-08T01:48:19.370Z,50.885666
2023-11-08T01:49:19.473Z,50.885548
2023-11-08T01:50:19.314Z,50.885590
2023-11-08T01:51:19.275Z,50.885654
2023-11-08T01:52:19.271Z,50.885597
2023-11-08T01:53:19.242Z,50.885582
2023-11-08T01:54:19.286Z,50.885574
2023-11-08T01:55:19.257Z,50.885559
2023-11-08T01:56:19.289Z,50.885567
2023-11-08T01:57:19.374Z,50.885590
2023-11-08T01:58:19.324Z,50.885593
2023-11-08T01:59:19.421Z,50.885578
2023-11-08T02:00:19.255Z,50.885582
2023-11-08T02:01:19.284Z,50.885578
2023-11-08T02:02:19.316Z,50.885571
2023-11-08T02:03:19.192Z,50.885632
2023-11-08T02:04:19.377Z,50.885624
2023-11-08T02:05:20.241Z,50.885632
2023-11-08T02:06:19.227Z,50.885563
2023-11-08T02:07:19.193Z,50.885571
2023-11-08T02:08:19.173Z,50.885567
2023-11-08T02:09:19.216Z,50.885586
2023-11-08T02:10:20.199Z,50.885654
2023-11-08T02:11:19.168Z,50.885704
2023-11-08T02:12:19.196Z,50.885666
2023-11-08T02:13:19.152Z,50.885670
2023-11-08T02:14:19.153Z,50.885765
2023-11-08T02:15:19.195Z,50.885681
2023-11-08T02:16:19.265Z,50.885601
2023-11-08T02:17:19.126Z,50.885601
2023-11-08T02:18:19.154Z,50.885647
2023-11-08T02:19:19.145Z,50.885658
2023-11-08T02:20:19.134Z,50.885639
2023-11-08T02:21:19.414Z,50.885651
2023-11-08T02:22:19.094Z,50.885677
2023-11-08T02:23:19.110Z,50.885647
2023-11-08T02:24:19.151Z,50.885635
2023-11-08T02:25:19.060Z,50.885647
2023-11-08T02:26:19.073Z,50.885616
2023-11-08T02:27:19.133Z,50.885586
2023-11-08T02:28:19.045Z,50.885544
2023-11-08T02:29:19.209Z,50.885605
2023-11-08T02:30:19.084Z,50.885677
2023-11-08T02:31:19.078Z,50.885643
2023-11-08T02:32:19.184Z,50.885647
2023-11-08T02:33:19.096Z,50.885555
2023-11-08T02:34:19.103Z,50.885609
2023-11-08T02:35:19.050Z,50.885567
2023-11-08T02:36:19.075Z,50.885628
2023-11-08T02:37:19.035Z,50.885715
2023-11-08T02:38:19.054Z,50.885662
2023-11-08T02:39:19.034Z,50.885662
2023-11-08T02:40:19.017Z,50.885670
2023-11-08T02:41:18.980Z,50.885643
2023-11-08T02:42:19.012Z,50.885658
2023-11-08T02:43:19.114Z,50.885632
2023-11-08T02:44:18.983Z,50.885639
2023-11-08T02:45:18.997Z,50.885643
2023-11-08T02:46:18.957Z,50.885658
2023-11-08T02:47:18.952Z,50.885597
2023-11-08T02:48:19.009Z,50.885551
2023-11-08T02:49:18.983Z,50.885571
2023-11-08T02:50:18.980Z,50.885201
2023-11-08T02:51:18.975Z,50.885109
2023-11-08T02:52:18.973Z,50.885315
2023-11-08T02:53:18.919Z,50.885406
2023-11-08T02:54:19.053Z,50.885326
2023-11-08T02:55:18.956Z,50.885620
2023-11-08T02:56:18.987Z,50.885712
2023-11-08T02:57:18.890Z,50.885609
2023-11-08T02:58:19.926Z,50.885578
2023-11-08T02:59:18.902Z,50.885941
2023-11-08T03:00:18.963Z,50.886105
2023-11-08T03:01:18.917Z,50.885990
2023-11-08T03:02:18.877Z,50.885677
2023-11-08T03:03:18.956Z,50.885700
2023-11-08T03:04:18.931Z,50.886662
2023-11-08T03:05:18.975Z,50.886532
2023-11-08T03:06:18.953Z,50.885700
2023-11-08T03:07:18.882Z,50.885571
2023-11-08T03:08:18.840Z,50.885517
2023-11-08T03:09:19.907Z,50.885555
2023-11-08T03:10:18.921Z,50.885551
2023-11-08T03:11:18.945Z,50.885582
2023-11-08T03:12:18.851Z,50.885593
2023-11-08T03:13:18.834Z,50.885609
2023-11-08T03:14:18.820Z,50.885693
2023-11-08T03:15:18.891Z,50.885628
2023-11-08T03:16:18.882Z,50.885639
2023-11-08T03:17:18.840Z,50.885666
2023-11-08T03:18:18.882Z,50.885597
2023-11-08T03:19:18.970Z,50.885612
2023-11-08T03:20:18.784Z,50.885616
2023-11-08T03:21:18.821Z,50.885666
2023-11-08T03:22:18.800Z,50.885769
2023-11-08T03:23:18.803Z,50.885654
2023-11-08T03:24:18.798Z,50.885590
2023-11-08T03:25:19.254Z,50.885529
2023-11-08T03:26:18.829Z,50.885418
2023-11-08T03:27:18.800Z,50.885319
2023-11-08T03:28:18.765Z,50.885357
2023-11-08T03:29:18.732Z,50.885616
2023-11-08T03:30:18.807Z,50.885674
2023-11-08T03:31:18.787Z,50.885658
2023-11-08T03:32:18.717Z,50.885647
2023-11-08T03:33:18.901Z,50.885715
2023-11-08T03:34:18.820Z,50.885704
2023-11-08T03:35:18.700Z,50.885681
2023-11-08T03:36:18.729Z,50.885666
2023-11-08T03:37:18.686Z,50.885654
2023-11-08T03:38:18.724Z,50.885727
2023-11-08T03:39:18.691Z,50.885693
2023-11-08T03:40:18.695Z,50.885658
2023-11-08T03:41:18.684Z,50.885658
2023-11-08T03:42:18.750Z,50.885670
2023-11-08T03:43:18.679Z,50.885574
2023-11-08T03:44:19.676Z,50.885540
2023-11-08T03:45:18.682Z,50.885509
2023-11-08T03:46:18.646Z,50.885578
2023-11-08T03:47:18.674Z,50.885662
2023-11-08T03:48:18.765Z,50.885551
2023-11-08T03:49:18.751Z,50.885567
2023-11-08T03:50:18.638Z,50.885578
2023-11-08T03:51:18.646Z,50.885586
2023-11-08T03:52:18.618Z,50.885555
2023-11-08T03:53:18.646Z,50.885605
2023-11-08T03:54:18.626Z,50.885578
2023-11-08T03:55:18.593Z,50.885529
2023-11-08T03:56:18.628Z,50.885540
2023-11-08T03:57:19.453Z,50.885586
2023-11-08T03:58:18.604Z,50.885670
2023-11-08T03:59:18.605Z,50.885677
2023-11-08T04:00:18.620Z,50.885586
2023-11-08T04:01:18.632Z,50.885612
2023-11-08T04:02:18.574Z,50.885612
2023-11-08T04:03:18.598Z,50.885666
2023-11-08T04:04:18.617Z,50.885635
2023-11-08T04:05:18.595Z,50.885620
2023-11-08T04:06:18.621Z,50.885590
2023-11-08T04:07:18.630Z,50.885601
2023-11-08T04:08:18.529Z,50.885578
2023-11-08T04:09:18.594Z,50.885620
2023-11-08T04:10:18.549Z,50.885731
2023-11-08T04:11:18.557Z,50.885586
2023-11-08T04:12:18.568Z,50.885666
2023-11-08T04:13:18.526Z,50.885605
2023-11-08T04:14:18.576Z,50.885563
2023-11-08T04:15:18.527Z,50.885632
2023-11-08T04:16:18.515Z,50.885681
2023-11-08T04:17:18.515Z,50.885647
2023-11-08T04:18:18.518Z,50.885586
2023-11-08T04:19:18.536Z,50.885624
2023-11-08T04:20:18.469Z,50.885746
2023-11-08T04:21:18.493Z,50.885574
2023-11-08T04:22:18.481Z,50.885529
2023-11-08T04:23:18.500Z,50.885582
2023-11-08T04:24:18.511Z,50.885639
2023-11-08T04:25:18.488Z,50.885635
2023-11-08T04:26:18.429Z,50.885647
2023-11-08T04:27:18.487Z,50.885605
2023-11-08T04:28:18.424Z,50.885597
2023-11-08T04:29:18.464Z,50.885628
2023-11-08T04:30:18.439Z,50.885632
2023-11-08T04:31:18.435Z,50.885632
2023-11-08T04:32:18.419Z,50.885605
2023-11-08T04:33:18.412Z,50.885624
2023-11-08T04:34:18.526Z,50.885670
2023-11-08T04:35:18.453Z,50.885624
2023-11-08T04:36:18.552Z,50.885616
2023-11-08T04:37:18.385Z,50.885628
2023-11-08T04:38:18.398Z,50.885365
2023-11-08T04:39:18.413Z,50.885319
2023-11-08T04:40:18.393Z,50.885704
2023-11-08T04:41:18.370Z,50.885532
2023-11-08T04:42:18.416Z,50.885490
2023-11-08T04:43:18.386Z,50.885612
2023-11-08T04:44:18.405Z,50.885666
2023-11-08T04:45:20.233Z,50.885643
2023-11-08T04:46:19.323Z,50.885612
2023-11-08T04:47:18.363Z,50.885571
2023-11-08T04:48:18.392Z,50.885628
2023-11-08T04:49:19.110Z,50.885738
2023-11-08T04:50:18.322Z,50.885651
2023-11-08T04:51:18.419Z,50.885937
2023-11-08T04:52:18.299Z,50.885796
2023-11-08T04:53:18.295Z,50.885681
2023-11-08T04:54:18.332Z,50.885681
2023-11-08T04:55:18.438Z,50.885609
2023-11-08T04:56:18.309Z,50.885693
2023-11-08T04:57:18.309Z,50.885662
2023-11-08T04:58:18.331Z,50.885620
2023-11-08T04:59:18.327Z,50.885628
2023-11-08T05:00:18.299Z,50.885651
2023-11-08T05:01:18.262Z,50.885643
2023-11-08T05:02:18.266Z,50.885525
2023-11-08T05:03:18.275Z,50.885616
2023-11-08T05:04:18.285Z,50.885567
2023-11-08T05:05:18.255Z,50.885582
2023-11-08T05:06:18.445Z,50.885639
2023-11-08T05:07:18.363Z,50.885632
2023-11-08T05:08:18.234Z,50.885738
2023-11-08T05:09:18.350Z,50.885960
2023-11-08T05:10:18.263Z,50.885933
2023-11-08T05:11:18.237Z,50.885822
2023-11-08T05:12:18.318Z,50.885601
2023-11-08T05:13:18.227Z,50.885666
2023-11-08T05:14:18.204Z,50.885605
2023-11-08T05:15:18.269Z,50.885685
2023-11-08T05:16:18.190Z,50.885693
2023-11-08T05:17:18.366Z,50.885658
2023-11-08T05:18:18.262Z,50.885796
2023-11-08T05:19:18.288Z,50.885509
2023-11-08T05:20:18.204Z,50.885502
2023-11-08T05:21:18.200Z,50.885662
2023-11-08T05:22:18.138Z,50.885639
2023-11-08T05:23:18.147Z,50.885658
2023-11-08T05:24:18.195Z,50.885742
2023-11-08T05:25:18.180Z,50.885792
2023-11-08T05:26:18.159Z,50.885883
2023-11-08T05:27:18.144Z,50.885674
2023-11-08T05:28:18.160Z,50.885738
2023-11-08T05:29:18.146Z,50.885612
2023-11-08T05:30:18.118Z,50.885479
2023-11-08T05:31:18.179Z,50.885548
2023-11-08T05:32:18.125Z,50.885651
2023-11-08T05:33:18.156Z,50.885593
2023-11-08T05:34:18.202Z,50.885719
2023-11-08T05:35:18.082Z,50.885693
2023-11-08T05:36:18.190Z,50.885765
2023-11-08T05:37:18.079Z,50.885639
2023-11-08T05:38:18.052Z,50.885731
2023-11-08T05:39:18.113Z,50.885647
2023-11-08T05:40:18.089Z,50.885632
2023-11-08T05:41:18.141Z,50.885685
2023-11-08T05:42:18.131Z,50.885639
2023-11-08T05:43:18.100Z,50.885735
2023-11-08T05:44:18.068Z,50.885693
2023-11-08T05:45:18.045Z,50.885715
2023-11-08T05:46:18.061Z,50.885685
2023-11-08T05:47:18.064Z,50.885666
2023-11-08T05:48:18.375Z,50.885647
2023-11-08T05:49:18.048Z,50.885681
2023-11-08T05:50:18.028Z,50.885654
2023-11-08T05:51:18.057Z,50.885620
2023-11-08T05:52:19.319Z,50.885651
2023-11-08T05:53:18.022Z,50.885647
2023-11-08T05:54:18.028Z,50.885635
2023-11-08T05:55:18.002Z,50.885662
2023-11-08T05:56:18.007Z,50.885593
2023-11-08T05:57:17.981Z,50.885590
2023-11-08T05:58:17.977Z,50.885567
2023-11-08T05:59:17.954Z,50.885571
2023-11-08T06:00:18.136Z,50.885677
2023-11-08T06:01:17.987Z,50.885674
2023-11-08T06:02:17.984Z,50.885651
2023-11-08T06:03:18.016Z,50.885616
2023-11-08T06:04:17.980Z,50.885597
2023-11-08T06:05:18.058Z,50.885746
2023-11-08T06:06:18.120Z,50.885696
2023-11-08T06:07:17.979Z,50.885620
2023-11-08T06:08:17.960Z,50.885654
2023-11-08T06:09:18.003Z,50.885651
2023-11-08T06:10:17.911Z,50.885647
2023-11-08T06:11:17.931Z,50.885632
2023-11-08T06:12:18.046Z,50.885719
2023-11-08T06:13:17.911Z,50.885670
2023-11-08T06:14:17.905Z,50.885651
2023-11-08T06:15:17.976Z,50.885651
2023-11-08T06:16:17.871Z,50.885571
2023-11-08T06:17:17.877Z,50.885582
2023-11-08T06:18:17.916Z,50.885586
2023-11-08T06:19:20.185Z,50.885620
2023-11-08T06:20:17.898Z,50.885620
2023-11-08T06:21:17.893Z,50.885612
2023-11-08T06:22:17.886Z,50.885609
2023-11-08T06:23:17.879Z,50.885609
2023-11-08T06:24:17.959Z,50.885597
2023-11-08T06:25:17.831Z,50.885609
2023-11-08T06:26:17.919Z,50.885624
2023-11-08T06:27:17.836Z,50.885612
2023-11-08T06:28:17.850Z,50.885586
2023-11-08T06:29:17.820Z,50.885578
2023-11-08T06:30:17.816Z,50.885628
2023-11-08T06:31:17.855Z,50.885666
2023-11-08T06:32:25.572Z,50.885624
2023-11-08T06:33:17.791Z,50.885632
2023-11-08T06:34:17.856Z,50.885590
2023-11-08T06:35:17.763Z,50.885586
2023-11-08T06:36:17.766Z,50.885620
2023-11-08T06:37:17.781Z,50.885666
2023-11-08T06:38:17.755Z,50.885647
2023-11-08T06:39:17.756Z,50.885643
2023-11-08T06:40:17.763Z,50.885681
2023-11-08T06:41:17.774Z,50.885693
2023-11-08T06:42:17.759Z,50.885635
2023-11-08T06:43:17.722Z,50.885605
2023-11-08T06:44:17.757Z,50.885620
2023-11-08T06:45:17.722Z,50.885632
2023-11-08T06:46:17.759Z,50.885628
2023-11-08T06:47:17.761Z,50.885605
2023-11-08T06:48:17.736Z,50.885593
2023-11-08T06:49:19.221Z,50.885620
2023-11-08T06:50:17.729Z,50.885639
2023-11-08T06:51:17.713Z,50.885632
2023-11-08T06:52:17.697Z,50.885643
2023-11-08T06:53:17.693Z,50.885601
2023-11-08T06:54:17.719Z,50.885624
2023-11-08T06:55:23.231Z,50.885715
2023-11-08T06:56:19.720Z,50.885784
2023-11-08T06:57:17.705Z,50.885712
2023-11-08T06:58:17.639Z,50.885647
2023-11-08T06:59:17.655Z,50.885647
2023-11-08T07:00:17.660Z,50.885677
2023-11-08T07:01:17.678Z,50.885620
2023-11-08T07:02:17.658Z,50.885685
2023-11-08T07:03:17.608Z,50.885658
2023-11-08T07:04:17.700Z,50.885586
2023-11-08T07:05:24.789Z,50.885567
2023-11-08T07:06:18.622Z,50.885666
2023-11-08T07:07:17.638Z,50.885639
2023-11-08T07:08:17.654Z,50.885410
2023-11-08T07:09:17.595Z,50.884895
2023-11-08T07:10:17.582Z,50.885189
2023-11-08T07:11:17.642Z,50.885101
2023-11-08T07:12:17.735Z,50.885292
2023-11-08T07:13:17.614Z,50.885387
2023-11-08T07:14:17.569Z,50.885723
2023-11-08T07:15:50.524Z,50.885349
2023-11-08T07:16:17.550Z,50.885342
2023-11-08T07:17:17.630Z,50.885708
2023-11-08T07:18:17.581Z,50.885689
2023-11-08T07:19:17.643Z,50.885674
2023-11-08T07:20:18.070Z,50.885597
2023-11-08T07:21:17.526Z,50.885571
2023-11-08T07:22:17.532Z,50.885700
2023-11-08T07:23:17.664Z,50.885525
2023-11-08T07:24:17.535Z,50.885593
2023-11-08T07:25:17.564Z,50.885727
2023-11-08T07:26:17.512Z,50.885704
2023-11-08T07:27:19.838Z,50.885506
2023-11-08T07:28:18.616Z,50.885612
2023-11-08T07:29:17.517Z,50.885590
2023-11-08T07:30:17.491Z,50.885757
2023-11-08T07:31:17.505Z,50.885628
2023-11-08T07:32:17.484Z,50.885544
2023-11-08T07:33:17.477Z,50.885548
2023-11-08T07:34:17.545Z,50.885532
2023-11-08T07:35:17.472Z,50.885780
2023-11-08T07:36:17.499Z,50.885708
2023-11-08T07:37:17.476Z,50.885792
2023-11-08T07:38:17.469Z,50.885674
2023-11-08T07:39:26.873Z,50.885487
2023-11-08T07:40:18.461Z,50.885693
2023-11-08T07:41:17.452Z,50.885826
2023-11-08T07:42:17.424Z,50.885723
2023-11-08T07:43:17.443Z,50.885700
2023-11-08T07:44:17.449Z,50.885620
2023-11-08T07:45:17.412Z,50.885586
2023-11-08T07:46:17.438Z,50.885658
2023-11-08T07:47:17.398Z,50.885616
2023-11-08T07:48:17.422Z,50.885620
2023-11-08T07:49:17.674Z,50.885582
2023-11-08T07:50:17.395Z,50.885544
2023-11-08T07:51:17.374Z,50.885593
2023-11-08T07:52:17.382Z,50.885693
2023-11-08T07:53:17.388Z,50.885685
2023-11-08T07:54:17.384Z,50.885521
2023-11-08T07:55:18.386Z,50.885563
2023-11-08T07:56:17.359Z,50.885670
2023-11-08T07:57:17.356Z,50.885738
2023-11-08T07:58:17.338Z,50.885601
2023-11-08T07:59:17.362Z,50.885624
2023-11-08T08:00:17.399Z,50.885578
2023-11-08T08:01:18.631Z,50.885647
2023-11-08T08:02:17.325Z,50.885590
2023-11-08T08:03:17.359Z,50.885658
2023-11-08T08:04:17.408Z,50.885708
2023-11-08T08:05:17.312Z,50.885693
2023-11-08T08:06:17.312Z,50.885746
2023-11-08T08:07:17.333Z,50.885643
2023-11-08T08:08:17.326Z,50.885605
2023-11-08T08:09:17.309Z,50.885704
2023-11-08T08:10:17.302Z,50.885651
2023-11-08T08:11:17.299Z,50.885674
2023-11-08T08:12:17.286Z,50.885662
2023-11-08T08:13:24.189Z,50.885670
2023-11-08T08:14:19.276Z,50.885681
2023-11-08T08:15:17.268Z,50.885735
2023-11-08T08:16:17.300Z,50.885715
2023-11-08T08:17:17.275Z,50.885750
2023-11-08T08:18:17.308Z,50.885708
2023-11-08T08:19:17.336Z,50.885704
2023-11-08T08:20:17.234Z,50.885670
2023-11-08T08:21:17.207Z,50.885654
2023-11-08T08:22:17.234Z,50.885712
2023-11-08T08:23:17.246Z,50.885727
2023-11-08T08:24:17.200Z,50.885826
2023-11-08T08:25:17.235Z,50.885857
2023-11-08T08:26:17.278Z,50.885899
2023-11-08T08:27:17.177Z,50.885960
2023-11-08T08:28:17.219Z,50.885948
2023-11-08T08:29:17.203Z,50.885983
2023-11-08T08:30:17.195Z,50.886120
2023-11-08T08:31:17.176Z,50.886204
2023-11-08T08:32:17.146Z,50.886230
2023-11-08T08:33:17.141Z,50.886086
2023-11-08T08:34:23.180Z,50.886181
2023-11-08T08:35:18.157Z,50.886005
2023-11-08T08:36:17.203Z,50.885872
2023-11-08T08:37:17.135Z,50.885731
2023-11-08T08:38:17.135Z,50.885670
2023-11-08T08:39:17.146Z,50.885586
2023-11-08T08:40:17.108Z,50.885597
2023-11-08T08:41:17.117Z,50.885609
2023-11-08T08:42:17.956Z,50.885639
2023-11-08T08:43:17.089Z,50.885681
2023-11-08T08:44:17.096Z,50.885635
2023-11-08T08:45:17.146Z,50.885628
2023-11-08T08:46:17.126Z,50.885643
2023-11-08T08:47:17.090Z,50.885620
2023-11-08T08:48:17.168Z,50.885654
2023-11-08T08:49:19.905Z,50.885597
2023-11-08T08:50:18.224Z,50.885612
2023-11-08T08:51:17.045Z,50.885624
2023-11-08T08:52:17.070Z,50.885632
2023-11-08T08:53:17.053Z,50.885635
2023-11-08T08:54:17.031Z,50.885616
2023-11-08T08:55:17.043Z,50.885609
2023-11-08T08:56:17.096Z,50.885597
2023-11-08T08:57:17.057Z,50.885601
2023-11-08T08:58:17.928Z,50.885628
2023-11-08T08:59:17.017Z,50.885624
2023-11-08T09:00:17.067Z,50.885643
2023-11-08T09:01:17.034Z,50.885670
2023-11-08T09:02:17.036Z,50.885651
2023-11-08T09:03:17.062Z,50.885624
2023-11-08T09:04:17.086Z,50.885601
2023-11-08T09:05:17.006Z,50.885571
2023-11-08T09:06:17.074Z,50.885578
2023-11-08T09:07:17.009Z,50.885574
2023-11-08T09:08:16.977Z,50.885597
2023-11-08T09:09:17.003Z,50.885567
2023-11-08T09:10:16.967Z,50.885513
2023-11-08T09:11:17.982Z,50.885597
2023-11-08T09:12:16.948Z,50.885632
2023-11-08T09:13:16.963Z,50.885571
2023-11-08T09:14:16.932Z,50.885563
2023-11-08T09:15:16.956Z,50.885601
2023-11-08T09:16:16.960Z,50.885593
2023-11-08T09:17:16.932Z,50.885590
2023-11-08T09:18:16.970Z,50.885578
2023-11-08T09:19:16.994Z,50.885487
2023-11-08T09:20:16.916Z,50.885571
2023-11-08T09:21:16.945Z,50.885681
2023-11-08T09:22:16.901Z,50.885643
2023-11-08T09:23:16.889Z,50.885620
2023-11-08T09:24:16.882Z,50.885609
2023-11-08T09:25:16.921Z,50.885593
2023-11-08T09:26:16.875Z,50.885612
2023-11-08T09:27:16.896Z,50.885654
2023-11-08T09:28:16.888Z,50.885628
2023-11-08T09:29:16.879Z,50.885593
2023-11-08T09:30:16.910Z,50.885502
2023-11-08T09:31:16.892Z,50.885532
2023-11-08T09:32:16.857Z,50.885708
2023-11-08T09:33:16.821Z,50.885456
2023-11-08T09:34:16.901Z,50.885490
2023-11-08T09:35:16.967Z,50.885483
2023-11-08T09:36:16.835Z,50.885464
2023-11-08T09:37:16.807Z,50.885361
2023-11-08T09:38:16.807Z,50.885464
2023-11-08T09:39:16.827Z,50.885658
2023-11-08T09:40:16.827Z,50.885593
2023-11-08T09:41:16.835Z,50.885666
2023-11-08T09:42:16.777Z,50.885712
2023-11-08T09:43:16.813Z,50.885773
2023-11-08T09:44:16.785Z,50.885643
2023-11-08T09:45:16.803Z,50.885677
2023-11-08T09:46:16.771Z,50.885628
2023-11-08T09:47:16.752Z,50.885738
2023-11-08T09:48:16.774Z,50.885605
2023-11-08T09:49:16.961Z,50.885666
2023-11-08T09:50:16.811Z,50.885624
2023-11-08T09:51:16.801Z,50.885590
2023-11-08T09:52:16.744Z,50.885555
2023-11-08T09:53:16.746Z,50.885571
2023-11-08T09:54:16.796Z,50.885723
2023-11-08T09:55:17.642Z,50.885670
2023-11-08T09:56:16.725Z,50.885719
2023-11-08T09:57:16.722Z,50.885742
2023-11-08T09:58:16.700Z,50.885803
2023-11-08T09:59:16.749Z,50.885818
2023-11-08T10:00:16.740Z,50.885731
2023-11-08T10:01:16.717Z,50.885727
2023-11-08T10:02:16.713Z,50.885658
2023-11-08T10:03:16.813Z,50.885605
2023-11-08T10:04:20.339Z,50.885601
2023-11-08T10:05:16.913Z,50.885479
2023-11-08T10:06:17.243Z,50.885761
2023-11-08T10:07:16.776Z,50.885677
2023-11-08T10:08:16.650Z,50.885788
2023-11-08T10:09:16.681Z,50.885635
2023-11-08T10:10:16.651Z,50.885658
2023-11-08T10:11:19.949Z,50.885689
2023-11-08T10:12:17.652Z,50.885632
2023-11-08T10:13:16.661Z,50.885792
2023-11-08T10:14:16.647Z,50.885822
2023-11-08T10:15:16.667Z,50.885857
2023-11-08T10:16:16.714Z,50.885841
2023-11-08T10:17:32.006Z,50.885677
2023-11-08T10:19:33.528Z,50.885784
2023-11-08T10:19:37.411Z,50.885632
2023-11-08T10:20:17.727Z,50.886021
2023-11-08T10:21:16.676Z,50.885925
2023-11-08T10:22:16.746Z,50.885635
2023-11-08T10:23:16.650Z,50.885605
2023-11-08T10:24:16.617Z,50.885666
2023-11-08T10:25:16.582Z,50.885502
2023-11-08T10:26:16.573Z,50.885616
2023-11-08T10:27:16.555Z,50.885509
2023-11-08T10:28:16.568Z,50.885475
2023-11-08T10:29:16.568Z,50.885773
2023-11-08T10:30:16.578Z,50.885681
2023-11-08T10:31:16.600Z,50.885586
2023-11-08T10:32:16.562Z,50.885555
2023-11-08T10:33:16.542Z,50.885746
2023-11-08T10:34:16.558Z,50.885666
2023-11-08T10:35:16.530Z,50.885628
2023-11-08T10:36:16.506Z,50.885647
2023-11-08T10:37:16.521Z,50.885582
2023-11-08T10:38:16.536Z,50.885693
2023-11-08T10:39:16.520Z,50.885620
2023-11-08T10:40:16.520Z,50.885578
2023-11-08T10:41:16.528Z,50.885727
2023-11-08T10:42:16.553Z,50.885693
2023-11-08T10:43:16.506Z,50.885643
2023-11-08T10:44:16.495Z,50.885727
2023-11-08T10:45:16.489Z,50.885876
2023-11-08T10:46:16.487Z,50.885868
2023-11-08T10:47:16.495Z,50.885723
2023-11-08T10:48:16.628Z,50.885723
2023-11-08T10:49:16.486Z,50.885990
2023-11-08T10:50:16.501Z,50.885780
2023-11-08T10:51:16.475Z,50.885475
2023-11-08T10:52:16.521Z,50.885643
2023-11-08T10:53:16.493Z,50.885612
2023-11-08T10:54:16.448Z,50.885651
2023-11-08T10:55:16.465Z,50.885639
2023-11-08T10:56:16.417Z,50.885479
2023-11-08T10:57:16.451Z,50.885529
2023-11-08T10:58:16.428Z,50.885578
2023-11-08T10:59:16.542Z,50.885643
2023-11-08T11:00:16.407Z,50.885681
2023-11-08T11:01:16.411Z,50.885635
2023-11-08T11:02:16.385Z,50.885612
2023-11-08T11:03:16.529Z,50.885632
2023-11-08T11:04:16.485Z,50.885624
2023-11-08T11:05:16.446Z,50.885651
2023-11-08T11:06:16.375Z,50.885696
2023-11-08T11:07:16.374Z,50.885708
2023-11-08T11:08:16.403Z,50.885723
2023-11-08T11:09:16.361Z,50.885681
2023-11-08T11:10:16.456Z,50.885609
2023-11-08T11:11:16.361Z,50.885674
2023-11-08T11:12:16.319Z,50.885635
2023-11-08T11:13:16.331Z,50.885654
2023-11-08T11:14:16.341Z,50.885731
2023-11-08T11:15:16.367Z,50.885658
2023-11-08T11:16:23.600Z,50.885635
2023-11-08T11:17:18.327Z,50.885612
2023-11-08T11:18:16.347Z,50.885612
2023-11-08T11:19:16.309Z,50.885628
2023-11-08T11:20:16.306Z,50.885670
2023-11-08T11:21:16.333Z,50.885643
2023-11-08T11:22:16.283Z,50.885624
2023-11-08T11:23:16.301Z,50.885662
2023-11-08T11:24:16.295Z,50.885677